Gardnersville, Kentucky
Current Conditions -  °F | °C
As of 1:53 PM on Thursday 30 Oct 2014 (Local Time) from KLUK Reporting Station
Few Clouds Few Clouds  
Wind Chill: 54°   Ceiling: Unl
Heat Index: 54°   Visibility: 10mi
Dew Point: 35°   Wind: 5mph
Humidity: 49%   Direction: 190°S
Pressure: 30.13"   Gusts: NA
Location:  38.8043°N, 84.4185°W
Report Text: KLUK 301753Z 19004KT 10SM FEW045 12/02 A3013 RMK AO2 SLP203 T01220017 10122 20011 58017
Loading
Personal Weather Stations






























Interactive Weather Map
Tropical Storm Tracking
New forecast layout! Learn more

10-Day Weather Forecast

Advertisements
Track Severe Weather on mobile